Time;durP1;ratioP1;P1;durP2;ratioP2;P2;SDS_P1;SDS_P2;PMS_P1;PMS_P2;Temp;Humidity;BMP_temperature;BMP_pressure;BME280_temperature;BME280_humidity;BME280_pressure;Samples;Min_cycle;Max_cycle;Signal;HPM_P1;HPM_P2
2022/03/25 00:00:25;;;;;;;46.08;34.95;;;;;;;7.53;64.93;102886.41;4997048;28;20022;-82
2022/03/25 00:02:51;;;;;;;51.40;36.25;;;;;;;7.55;64.94;102905.28;5001336;28;20062;-82
2022/03/25 00:05:24;;;;;;;49.83;35.55;;;;;;;7.51;64.38;102894.19;4988629;28;20513;-82
2022/03/25 00:07:50;;;;;;;50.95;36.05;;;;;;;7.28;64.69;102851.13;4991081;28;20031;-82
2022/03/25 00:10:15;;;;;;;46.30;36.00;;;;;;;7.59;64.96;102899.13;4990470;28;20034;-82
2022/03/25 00:12:46;;;;;;;47.45;34.70;;;;;;;7.43;64.57;102881.56;4990236;28;20351;-82
2022/03/25 00:18:06;;;;;;;49.92;35.58;;;;;;;7.30;64.38;102872.59;5007114;28;20497;-82
2022/03/25 00:20:32;;;;;;;45.25;34.95;;;;;;;7.17;64.02;102848.09;5010924;28;20040;-82
2022/03/25 00:23:00;;;;;;;49.30;35.22;;;;;;;7.13;64.17;102846.53;5010006;28;20029;-81
2022/03/25 00:25:28;;;;;;;43.50;34.17;;;;;;;7.16;64.85;102862.72;4983115;28;20493;-82
2022/03/25 00:28:12;;;;;;;47.03;34.75;;;;;;;7.07;64.25;102849.31;5025358;28;20139;-82
2022/03/25 00:30:38;;;;;;;46.95;34.92;;;;;;;6.91;65.51;102842.09;5014568;28;20315;-82
2022/03/25 00:33:06;;;;;;;44.83;35.75;;;;;;;7.02;64.54;102858.94;5009602;28;20389;-82
2022/03/25 00:35:32;;;;;;;49.05;35.35;;;;;;;6.81;65.18;102850.19;5003549;28;20037;-81
2022/03/25 00:37:58;;;;;;;47.83;35.35;;;;;;;6.81;64.54;102845.88;5010841;28;20583;-82
2022/03/25 00:40:24;;;;;;;44.17;33.70;;;;;;;6.99;64.10;102884.84;4991359;28;20026;-82
2022/03/25 00:42:50;;;;;;;43.67;33.15;;;;;;;6.99;64.02;102890.84;5016180;28;20032;-81
2022/03/25 00:45:18;;;;;;;47.13;34.90;;;;;;;6.88;64.43;102888.63;5000621;28;20036;-83
2022/03/25 00:47:43;;;;;;;47.08;33.50;;;;;;;6.64;64.56;102845.56;4995961;28;20025;-82
2022/03/25 00:50:11;;;;;;;45.95;34.75;;;;;;;6.80;64.67;102874.28;5028270;28;20041;-82
2022/03/25 00:52:37;;;;;;;42.35;32.72;;;;;;;6.98;64.61;102903.78;5010760;28;20032;-81
2022/03/25 00:55:06;;;;;;;43.97;33.13;;;;;;;6.68;63.78;102849.75;5020398;28;20037;-82
2022/03/25 00:57:37;;;;;;;45.60;34.13;;;;;;;6.76;64.01;102863.22;5008391;28;20045;-82
2022/03/25 01:00:04;;;;;;;44.88;34.10;;;;;;;6.86;64.50;102885.25;4996171;28;20116;-81
2022/03/25 01:02:37;;;;;;;43.88;34.13;;;;;;;6.73;63.31;102868.50;5027185;28;20334;-82
2022/03/25 01:05:03;;;;;;;44.72;33.97;;;;;;;6.62;63.26;102855.09;5005621;28;20029;-82
2022/03/25 01:07:30;;;;;;;46.95;33.67;;;;;;;6.67;63.59;102863.53;5024642;28;20029;-82
2022/03/25 01:09:56;;;;;;;44.10;34.05;;;;;;;6.58;62.61;102868.97;5005757;28;20034;-81
2022/03/25 01:12:32;;;;;;;;;;;;;;;;;;;;;
2022/03/25 01:14:57;;;;;;;43.83;33.33;;;;;;;6.53;63.23;102881.16;5016032;28;20014;-82
2022/03/25 01:17:27;;;;;;;43.90;33.45;;;;;;;6.38;63.77;102860.16;5002157;28;20386;-82
2022/03/25 01:19:52;;;;;;;41.53;32.80;;;;;;;6.26;63.37;102847.66;4999636;28;20051;-82
2022/03/25 01:22:18;;;;;;;42.15;32.28;;;;;;;6.51;63.20;102898.44;5006919;28;20478;-82
2022/03/25 01:24:43;;;;;;;40.00;32.50;;;;;;;6.53;62.63;102909.53;5027946;28;20034;-82
2022/03/25 01:27:22;;;;;;;41.53;31.50;;;;;;;6.27;62.86;102875.09;5028691;28;20365;-81
2022/03/25 01:29:47;;;;;;;46.10;32.90;;;;;;;6.10;62.68;102856.75;5001879;28;20038;-83
2022/03/25 01:32:13;;;;;;;42.97;30.48;;;;;;;6.25;62.70;102886.34;5008722;28;20026;-81
2022/03/25 01:34:38;;;;;;;41.90;31.02;;;;;;;6.16;61.90;102878.91;5009677;28;20412;-82
2022/03/25 01:37:13;;;;;;;41.38;30.73;;;;;;;6.10;62.38;102872.19;5016852;28;20053;-82
2022/03/25 01:40:01;;;;;;;43.90;32.58;;;;;;;6.08;62.74;102866.25;5010220;28;20061;-82
2022/03/25 01:42:34;;;;;;;44.33;31.67;;;;;;;5.93;63.80;102858.97;5015414;28;20505;-82
2022/03/25 01:45:02;;;;;;;42.22;31.25;;;;;;;6.02;62.90;102869.00;5018069;28;20034;-81
2022/03/25 01:47:37;;;;;;;46.90;33.55;;;;;;;5.84;62.50;102850.59;4990478;28;20466;-81
2022/03/25 01:50:06;;;;;;;43.60;32.35;;;;;;;5.82;62.49;102836.91;5007975;28;20127;-82
2022/03/25 01:52:39;;;;;;;43.40;32.70;;;;;;;6.09;62.51;102894.53;5021303;28;20039;-82
2022/03/25 01:55:26;;;;;;;43.13;32.58;;;;;;;5.82;62.36;102857.53;4990192;28;20061;-82
2022/03/25 01:57:55;;;;;;;45.60;33.65;;;;;;;5.84;62.33;102866.03;4990665;28;20038;-81
2022/03/25 02:00:34;;;;;;;;;;;;;;;;;;;;;
2022/03/25 02:03:17;;;;;;;;;;;;;;;;;;;;;
2022/03/25 02:06:14;;;;;;;;;;;;;;;;;;;;;
2022/03/25 02:08:58;;;;;;;44.70;34.13;;;;;;;5.58;63.32;102842.78;5018855;28;20051;-82
2022/03/25 02:11:34;;;;;;;;;;;;;;;;;;;;;
2022/03/25 02:13:59;;;;;;;46.50;34.72;;;;;;;5.82;63.23;102883.28;5026500;28;20025;-81
2022/03/25 02:16:40;;;;;;;44.10;34.67;;;;;;;5.82;63.42;102878.13;4991259;28;20032;-81
2022/03/25 02:19:08;;;;;;;42.78;33.90;;;;;;;5.76;62.71;102868.00;4991660;28;20111;-82
2022/03/25 02:21:34;;;;;;;49.15;36.13;;;;;;;5.80;62.79;102885.06;5002511;28;20034;-81
2022/03/25 02:24:05;;;;;;;46.33;35.13;;;;;;;5.72;63.01;102881.84;5014793;28;20072;-82
2022/03/25 02:26:34;;;;;;;47.10;35.63;;;;;;;5.78;63.24;102880.81;4989043;28;20076;-82
2022/03/25 02:29:16;;;;;;;;;;;;;;;;;;;;;
2022/03/25 02:32:43;;;;;;;;;;;;;;;;;;;;;
2022/03/25 02:35:49;;;;;;;;;;;;;;;;;;;;;
2022/03/25 02:38:41;;;;;;;48.78;36.55;;;;;;;5.47;64.15;102870.56;4946161;29;20065;-82
2022/03/25 02:41:36;;;;;;;;;;;;;;;;;;;;;
2022/03/25 02:44:03;;;;;;;50.15;36.97;;;;;;;5.38;65.21;102886.22;4940621;28;20093;-81
2022/03/25 02:46:29;;;;;;;50.58;37.40;;;;;;;5.16;65.02;102863.66;4927340;29;20039;-82
2022/03/25 02:48:57;;;;;;;49.17;37.63;;;;;;;5.10;65.29;102857.81;4911216;29;20040;-83
2022/03/25 02:51:22;;;;;;;49.20;36.78;;;;;;;5.06;65.88;102867.34;4912293;29;20122;-81
2022/03/25 02:53:48;;;;;;;51.20;38.15;;;;;;;5.10;65.37;102866.38;4925241;29;20118;-82
2022/03/25 02:56:17;;;;;;;47.88;36.55;;;;;;;4.92;66.25;102864.28;4928537;29;20043;-81
2022/03/25 02:58:45;;;;;;;49.35;37.60;;;;;;;4.85;66.20;102844.75;4929870;29;20031;-81
2022/03/25 03:01:13;;;;;;;50.65;38.78;;;;;;;4.72;66.16;102837.34;4929893;29;20107;-81
2022/03/25 03:03:41;;;;;;;55.00;40.25;;;;;;;4.85;66.10;102873.03;4945903;28;20031;-82
2022/03/25 03:09:49;;;;;;;52.10;38.35;;;;;;;4.93;66.38;102871.09;4925926;28;20039;-82
2022/03/25 03:13:05;;;;;;;;;;;;;;;;;;;;;
2022/03/25 03:18:39;;;;;;;53.35;38.88;;;;;;;4.93;65.84;102853.09;5002826;28;20172;-82
2022/03/25 03:24:27;;;;;;;;;;;;;;;;;;;;;
2022/03/25 03:27:02;;;;;;;51.83;39.95;;;;;;;4.78;66.38;102855.19;5008547;28;20030;-82
2022/03/25 03:33:14;;;;;;;;;;;;;;;;;;;;;
2022/03/25 03:35:43;;;;;;;55.47;41.03;;;;;;;4.96;66.79;102873.59;5017529;28;20029;-81
2022/03/25 03:38:09;;;;;;;54.95;42.08;;;;;;;4.98;66.78;102887.25;5017489;28;20025;-82
2022/03/25 03:40:34;;;;;;;58.08;41.70;;;;;;;5.01;67.20;102882.06;5029646;28;20370;-81
2022/03/25 03:42:59;;;;;;;53.58;41.70;;;;;;;4.95;66.80;102877.06;4996061;28;20034;-81
2022/03/25 03:45:38;;;;;;;;;;;;;;;;;;;;;
2022/03/25 03:48:04;;;;;;;56.17;41.53;;;;;;;4.91;66.49;102875.44;5010596;28;20730;-81
2022/03/25 03:50:30;;;;;;;56.00;42.22;;;;;;;4.90;67.04;102889.19;5020643;28;20029;-81
2022/03/25 03:52:56;;;;;;;58.75;42.65;;;;;;;4.80;67.71;102883.41;5021773;28;20025;-83
2022/03/25 03:55:24;;;;;;;60.80;43.88;;;;;;;4.44;68.24;102838.91;5001932;28;20040;-82
2022/03/25 03:57:49;;;;;;;56.47;43.17;;;;;;;4.53;68.56;102859.25;5016678;28;20033;-82
2022/03/25 04:00:15;;;;;;;63.28;46.20;;;;;;;4.52;68.67;102868.66;4999383;28;20068;-82
2022/03/25 04:02:48;;;;;;;63.92;47.47;;;;;;;4.28;69.48;102843.53;5018522;28;20032;-81
2022/03/25 04:05:14;;;;;;;63.80;47.65;;;;;;;4.20;69.86;102838.59;5017831;28;20088;-80
2022/03/25 04:07:41;;;;;;;66.93;48.47;;;;;;;4.22;70.59;102854.78;5029575;28;20448;-81
2022/03/25 04:10:10;;;;;;;65.70;48.53;;;;;;;4.03;70.33;102832.13;5004876;28;20498;-82
2022/03/25 04:12:41;;;;;;;67.45;50.38;;;;;;;4.23;70.78;102865.91;4992652;28;20113;-81
2022/03/25 04:15:42;;;;;;;65.43;49.38;;;;;;;4.17;71.17;102859.19;5000432;28;20060;-82
2022/03/25 04:18:10;;;;;;;69.13;51.03;;;;;;;4.22;71.64;102870.19;4992178;28;20033;-82
2022/03/25 04:20:39;;;;;;;66.30;49.45;;;;;;;4.07;71.39;102862.84;5009100;28;20430;-82
2022/03/25 04:23:09;;;;;;;67.75;51.45;;;;;;;3.99;71.90;102859.59;5001644;28;20028;-81
2022/03/25 04:25:44;;;;;;;66.13;51.30;;;;;;;3.96;71.70;102849.41;4997471;28;20044;-82
2022/03/25 04:31:03;;;;;;;68.53;51.42;;;;;;;3.96;72.13;102867.38;5017511;28;20033;-82
2022/03/25 04:33:33;;;;;;;71.40;52.67;;;;;;;4.24;71.38;102899.28;5024548;28;20037;-82
2022/03/25 04:36:03;;;;;;;74.35;52.05;;;;;;;4.22;71.59;102875.34;4998842;28;20082;-82
2022/03/25 04:38:28;;;;;;;68.85;52.00;;;;;;;4.16;71.58;102865.19;4991526;28;20026;-81
2022/03/25 04:40:55;;;;;;;67.47;51.92;;;;;;;4.05;71.55;102851.75;5025029;28;20425;-82
2022/03/25 04:43:22;;;;;;;69.47;53.20;;;;;;;4.15;70.77;102849.84;5010907;28;20033;-82
2022/03/25 04:46:34;;;;;;;69.15;53.10;;;;;;;4.22;71.73;102895.88;5027302;28;20097;-82
2022/03/25 04:52:41;;;;;;;71.18;54.72;;;;;;;4.29;70.93;102895.75;5006335;28;20382;-82
2022/03/25 04:55:15;;;;;;;67.75;52.55;;;;;;;4.08;71.44;102887.66;5019303;28;20025;-81
2022/03/25 04:57:47;;;;;;;74.65;55.83;;;;;;;4.12;72.05;102896.13;4990944;28;20381;-81
2022/03/25 05:00:14;;;;;;;70.85;53.55;;;;;;;3.79;71.80;102848.91;4997650;28;20029;-81
2022/03/25 05:02:47;;;;;;;75.43;56.47;;;;;;;3.79;72.26;102857.47;4993306;28;20026;-81
2022/03/25 05:05:13;;;;;;;73.70;55.22;;;;;;;3.76;71.62;102854.09;5015690;28;20025;-81
2022/03/25 05:07:43;;;;;;;74.82;56.28;;;;;;;4.10;72.02;102910.72;5002634;28;20171;-81
2022/03/25 05:10:10;;;;;;;74.55;55.08;;;;;;;4.10;71.83;102914.13;5022813;28;20061;-81
2022/03/25 05:12:36;;;;;;;75.22;55.70;;;;;;;3.98;72.59;102897.25;5016526;28;20038;-83
2022/03/25 05:15:02;;;;;;;74.75;55.53;;;;;;;3.98;72.30;102901.56;5014955;28;20052;-85
2022/03/25 05:17:27;;;;;;;74.93;54.90;;;;;;;4.03;72.30;102910.00;5006027;28;20042;-85
2022/03/25 05:19:54;;;;;;;72.47;56.08;;;;;;;4.01;72.52;102906.59;5023281;28;20382;-86
2022/03/25 05:22:19;;;;;;;76.97;56.70;;;;;;;4.08;72.75;102915.91;5020140;28;20037;-85
2022/03/25 05:24:44;;;;;;;75.93;55.90;;;;;;;3.96;73.13;102898.19;5011649;28;20121;-86
2022/03/25 05:27:10;;;;;;;76.68;57.97;;;;;;;4.03;72.80;102910.00;5018990;28;20038;-86
2022/03/25 05:29:38;;;;;;;75.63;57.78;;;;;;;3.99;73.09;102918.63;4998298;28;20061;-87
2022/03/25 05:32:04;;;;;;;77.20;58.45;;;;;;;3.80;73.20;102881.41;5010214;28;20040;-84
2022/03/25 05:34:29;;;;;;;76.30;58.33;;;;;;;3.69;73.31;102874.75;4999359;28;20033;-85
2022/03/25 05:36:55;;;;;;;78.13;58.50;;;;;;;3.91;73.36;102920.53;4993608;28;20042;-85
2022/03/25 05:39:20;;;;;;;79.90;57.88;;;;;;;3.82;73.15;102910.44;4994410;28;20053;-86
2022/03/25 05:41:46;;;;;;;79.53;58.65;;;;;;;3.88;72.97;102912.88;5018633;28;20030;-86
2022/03/25 05:44:11;;;;;;;77.45;59.03;;;;;;;3.72;73.17;102905.47;5029927;28;20410;-85
2022/03/25 05:46:38;;;;;;;79.90;59.15;;;;;;;3.70;73.90;102912.38;4992528;28;20072;-85
2022/03/25 05:49:04;;;;;;;80.53;62.03;;;;;;;3.74;74.04;102933.69;5009180;28;20248;-85
2022/03/25 05:51:30;;;;;;;86.53;63.60;;;;;;;3.65;74.53;102924.44;5014000;28;20041;-85
2022/03/25 05:53:56;;;;;;;86.88;63.70;;;;;;;3.67;74.79;102930.41;5022489;28;20025;-86
2022/03/25 05:56:21;;;;;;;88.38;64.57;;;;;;;3.69;75.35;102936.34;5023652;28;20021;-86
2022/03/25 05:58:47;;;;;;;85.82;65.07;;;;;;;3.48;75.71;102903.38;5026834;28;20445;-84
2022/03/25 06:01:13;;;;;;;89.40;64.72;;;;;;;3.59;76.05;102939.94;5008771;28;20025;-85
2022/03/25 06:03:39;;;;;;;87.60;65.80;;;;;;;3.59;76.21;102937.38;4989978;28;20025;-87
2022/03/25 06:06:07;;;;;;;91.50;68.03;;;;;;;3.45;76.76;102916.28;5007144;28;20038;-88
2022/03/25 06:08:33;;;;;;;91.93;69.00;;;;;;;3.37;76.93;102907.84;5019574;28;20045;-86
2022/03/25 06:10:59;;;;;;;91.18;70.15;;;;;;;3.38;77.70;102920.69;4997115;28;20025;-86
2022/03/25 06:13:26;;;;;;;97.50;70.63;;;;;;;3.52;77.62;102946.06;5007078;28;20033;-85
2022/03/25 06:15:52;;;;;;;96.55;71.70;;;;;;;3.55;77.73;102940.88;5021323;28;20029;-85
2022/03/25 06:18:18;;;;;;;94.35;69.45;;;;;;;3.60;78.24;102951.91;5025469;28;20095;-84
2022/03/25 06:20:43;;;;;;;94.22;70.13;;;;;;;3.43;77.63;102915.44;5014341;28;20104;-86
2022/03/25 06:23:08;;;;;;;92.57;71.03;;;;;;;3.59;77.45;102934.81;5022907;28;20029;-84
2022/03/25 06:25:35;;;;;;;93.10;69.63;;;;;;;3.62;77.61;102939.06;5008477;28;20496;-86
2022/03/25 06:28:04;;;;;;;94.07;70.60;;;;;;;3.61;77.69;102937.34;5018368;28;21002;-81
2022/03/25 06:30:34;;;;;;;90.88;68.38;;;;;;;3.52;76.64;102912.72;5006695;28;20702;-84
2022/03/25 06:33:00;;;;;;;97.20;69.35;;;;;;;3.70;77.26;102932.91;4992277;28;20073;-85
2022/03/25 06:35:25;;;;;;;97.75;71.32;;;;;;;3.49;77.41;102896.53;4989963;28;20512;-84
2022/03/25 06:37:52;;;;;;;99.28;72.50;;;;;;;3.55;77.84;102902.38;4993428;28;20033;-86
2022/03/25 06:40:18;;;;;;;94.90;72.38;;;;;;;3.75;77.37;102929.41;5008506;28;20025;-85
2022/03/25 06:42:45;;;;;;;94.72;72.35;;;;;;;3.82;77.73;102938.66;5015685;28;20029;-86
2022/03/25 06:45:14;;;;;;;94.25;71.75;;;;;;;4.02;77.96;102959.69;5016156;28;20044;-87
2022/03/25 06:47:39;;;;;;;94.90;73.05;;;;;;;3.75;77.51;102914.00;5014230;28;20057;-82
2022/03/25 06:50:07;;;;;;;97.00;72.15;;;;;;;4.06;78.59;102956.16;5016735;28;20422;-82
2022/03/25 06:52:33;;;;;;;97.82;74.80;;;;;;;4.09;78.00;102961.25;4998989;28;20034;-87
2022/03/25 06:54:59;;;;;;;93.30;70.95;;;;;;;4.01;77.83;102942.56;5006442;28;20367;-86
2022/03/25 06:57:25;;;;;;;94.72;72.80;;;;;;;4.14;78.26;102969.69;4972413;28;20034;-87
2022/03/25 06:59:51;;;;;;;97.30;74.68;;;;;;;4.18;78.22;102961.03;4989131;28;20029;-86
2022/03/25 07:02:16;;;;;;;98.78;72.68;;;;;;;4.02;77.73;102934.00;5003388;28;20030;-86
2022/03/25 07:04:43;;;;;;;96.95;72.30;;;;;;;4.05;77.39;102933.91;4994235;28;20385;-86
2022/03/25 07:07:09;;;;;;;95.85;71.57;;;;;;;4.22;77.70;102967.81;4994569;28;20061;-85
2022/03/25 07:09:35;;;;;;;96.20;72.18;;;;;;;4.16;77.58;102947.38;5010044;28;20052;-86
2022/03/25 07:12:02;;;;;;;97.93;73.03;;;;;;;4.08;78.36;102928.72;5016229;28;20034;-87
2022/03/25 07:14:27;;;;;;;97.03;75.90;;;;;;;4.45;78.22;102974.19;5029749;28;20033;-86
2022/03/25 07:16:52;;;;;;;96.40;74.43;;;;;;;4.53;78.29;102990.31;5019164;28;20021;-81
2022/03/25 07:19:18;;;;;;;100.65;76.40;;;;;;;4.57;78.60;102989.34;5029582;28;20049;-82
2022/03/25 07:21:44;;;;;;;98.03;75.28;;;;;;;4.63;78.21;102989.19;5011667;28;20040;-82
2022/03/25 07:24:09;;;;;;;97.65;74.60;;;;;;;4.66;78.03;102984.00;5026682;28;20074;-83
2022/03/25 07:26:35;;;;;;;99.75;76.25;;;;;;;4.70;78.17;102980.50;5020133;28;20486;-85
2022/03/25 07:29:01;;;;;;;97.95;74.72;;;;;;;4.87;78.71;102998.09;5029817;28;20033;-85
2022/03/25 07:31:32;;;;;;;99.97;77.88;;;;;;;4.92;78.41;102985.13;5012684;28;20030;-85
2022/03/25 07:33:58;;;;;;;99.60;75.72;;;;;;;4.86;78.63;102954.41;5014012;28;20484;-86
2022/03/25 07:36:24;;;;;;;100.88;78.13;;;;;;;4.91;77.26;102960.28;5008990;28;20026;-86
2022/03/25 07:38:51;;;;;;;99.88;75.72;;;;;;;5.01;77.94;102954.06;4992154;28;20053;-85
2022/03/25 07:41:16;;;;;;;95.45;74.55;;;;;;;5.31;77.17;102994.47;4992097;28;20036;-85
2022/03/25 07:43:43;;;;;;;97.85;74.30;;;;;;;5.29;77.20;102977.38;5020820;28;20041;-85
2022/03/25 07:46:08;;;;;;;97.88;75.65;;;;;;;5.59;76.53;103014.34;5028892;28;20442;-85
2022/03/25 07:48:33;;;;;;;95.32;74.35;;;;;;;5.70;76.82;103017.50;5028737;28;20037;-85
2022/03/25 07:50:59;;;;;;;94.22;74.28;;;;;;;5.73;76.46;103012.25;5028912;28;20060;-85
2022/03/25 07:53:27;;;;;;;89.97;70.78;;;;;;;5.89;76.42;103011.88;5020652;28;20029;-86
2022/03/25 07:55:52;;;;;;;89.75;70.90;;;;;;;5.64;75.73;102958.47;5009454;28;20033;-87
2022/03/25 07:58:19;;;;;;;92.95;72.35;;;;;;;5.94;75.68;103003.16;4996122;28;20021;-82
2022/03/25 08:00:46;;;;;;;87.85;69.10;;;;;;;6.14;75.96;103023.25;5003903;28;20017;-82
2022/03/25 08:03:11;;;;;;;93.82;71.80;;;;;;;6.23;74.96;103033.28;5019599;28;20061;-86
2022/03/25 08:05:38;;;;;;;94.93;70.80;;;;;;;6.28;74.65;103026.25;5015697;28;20063;-86
2022/03/25 08:08:04;;;;;;;89.32;69.05;;;;;;;6.32;74.40;103017.56;4991921;28;20068;-85
2022/03/25 08:10:31;;;;;;;88.47;71.03;;;;;;;6.33;74.31;103005.50;5016647;28;20108;-84
2022/03/25 08:12:58;;;;;;;86.50;69.28;;;;;;;6.33;73.94;102993.47;4995401;28;20030;-85
2022/03/25 08:15:32;;;;;;;85.55;66.85;;;;;;;6.61;73.17;103029.59;4999027;28;20112;-84
2022/03/25 08:18:06;;;;;;;88.78;69.93;;;;;;;6.60;73.58;103016.75;5009786;28;20050;-85
2022/03/25 08:20:45;;;;;;;88.22;68.57;;;;;;;6.53;73.30;102979.13;5010760;28;20025;-86
2022/03/25 08:28:57;;;;;;;82.00;63.05;;;;;;;6.87;70.90;103002.16;4995476;28;20072;-84
2022/03/25 08:31:24;;;;;;;83.43;62.20;;;;;;;6.87;70.48;102990.09;4991384;28;20049;-85
2022/03/25 08:33:49;;;;;;;77.90;61.00;;;;;;;6.98;69.67;102994.09;5013503;28;20033;-86
2022/03/25 08:36:18;;;;;;;79.85;60.25;;;;;;;7.19;69.64;103011.47;5016431;28;20044;-83
2022/03/25 08:38:44;;;;;;;78.40;59.55;;;;;;;7.47;69.17;103051.88;5013686;28;20478;-86
2022/03/25 08:41:09;;;;;;;78.00;58.20;;;;;;;7.45;69.40;103034.72;4992996;28;20045;-84
2022/03/25 08:43:35;;;;;;;74.00;57.75;;;;;;;7.43;69.16;103013.25;5015311;28;20458;-85
2022/03/25 08:46:01;;;;;;;75.10;57.20;;;;;;;7.75;68.30;103062.97;4999351;28;20040;-86
2022/03/25 08:48:27;;;;;;;74.82;56.25;;;;;;;7.81;67.89;103046.44;5014873;28;20137;-85
2022/03/25 08:50:53;;;;;;;75.28;56.53;;;;;;;7.70;66.52;103026.13;5011346;28;20108;-81
2022/03/25 08:53:19;;;;;;;74.18;55.60;;;;;;;8.01;66.99;103064.66;5028429;28;20350;-81
2022/03/25 08:55:45;;;;;;;74.97;55.70;;;;;;;8.08;67.40;103049.78;5027895;28;20048;-84
2022/03/25 08:58:11;;;;;;;75.65;56.88;;;;;;;8.20;67.12;103057.09;5028116;28;20057;-84
2022/03/25 09:00:37;;;;;;;75.72;57.35;;;;;;;8.22;66.72;103037.22;5008331;28;20018;-85
2022/03/25 09:03:06;;;;;;;72.65;55.80;;;;;;;8.42;66.67;103060.63;5006830;28;20029;-83
2022/03/25 09:05:32;;;;;;;82.22;59.65;;;;;;;8.50;66.41;103063.78;4998144;28;20042;-84
2022/03/25 09:07:59;;;;;;;77.50;57.85;;;;;;;8.50;66.70;103037.91;5026193;28;20036;-86
2022/03/25 09:10:25;;;;;;;73.03;55.00;;;;;;;8.48;64.53;103029.34;5028141;28;20473;-85
2022/03/25 09:12:51;;;;;;;73.60;56.50;;;;;;;8.73;65.92;103054.31;5027805;28;20416;-84
2022/03/25 09:15:16;;;;;;;68.00;52.83;;;;;;;8.70;65.37;103023.38;5026909;28;20500;-86
2022/03/25 09:17:44;;;;;;;75.88;57.75;;;;;;;8.78;66.33;103031.69;5027751;28;20549;-84
2022/03/25 09:20:10;;;;;;;75.10;57.40;;;;;;;8.88;64.95;103038.19;5008523;28;20053;-84
2022/03/25 09:22:35;;;;;;;72.82;56.25;;;;;;;8.85;64.07;103027.97;5007828;28;20034;-85
2022/03/25 09:25:03;;;;;;;71.40;56.03;;;;;;;8.94;64.60;103022.41;5008360;28;20029;-84
2022/03/25 09:27:28;;;;;;;75.13;58.33;;;;;;;9.30;64.09;103065.88;5007202;28;20112;-85
2022/03/25 09:29:56;;;;;;;69.97;55.38;;;;;;;9.25;63.77;103026.38;5024254;28;20035;-84
2022/03/25 09:32:21;;;;;;;67.53;52.33;;;;;;;9.36;62.37;103039.72;5009515;28;20374;-85
2022/03/25 09:35:11;;;;;;;69.30;52.63;;;;;;;9.66;61.73;103062.66;4996176;28;20468;-86
2022/03/25 09:37:45;;;;;;;63.35;49.28;;;;;;;9.59;59.92;103038.78;5007697;28;20060;-85
2022/03/25 09:40:16;;;;;;;60.22;47.22;;;;;;;9.73;59.50;103053.72;5013012;28;20029;-84
2022/03/25 09:42:42;;;;;;;58.45;45.25;;;;;;;9.74;58.15;103045.03;5017177;28;20064;-86
2022/03/25 09:45:10;;;;;;;59.38;47.70;;;;;;;9.82;57.56;103045.56;5004163;28;20143;-84
2022/03/25 09:47:36;;;;;;;56.93;45.50;;;;;;;9.75;56.52;103036.38;5009530;28;20065;-85
2022/03/25 09:50:04;;;;;;;59.25;46.53;;;;;;;9.99;58.83;103050.03;5012397;28;20068;-85
2022/03/25 09:52:31;;;;;;;61.58;47.50;;;;;;;10.02;58.28;103042.94;5022525;28;20087;-84
2022/03/25 09:54:57;;;;;;;63.58;47.40;;;;;;;10.13;58.39;103041.63;5024892;28;20052;-85
2022/03/25 09:57:25;;;;;;;62.05;48.20;;;;;;;10.25;59.05;103041.13;5001726;28;20033;-85
2022/03/25 09:59:50;;;;;;;56.63;46.10;;;;;;;10.39;57.01;103043.09;4998970;28;20030;-86
2022/03/25 10:02:16;;;;;;;61.03;48.05;;;;;;;10.29;56.92;103014.97;5019019;28;20465;-84
2022/03/25 10:04:46;;;;;;;60.13;47.15;;;;;;;10.39;58.02;103019.75;5002961;28;20025;-82
2022/03/25 10:07:23;;;;;;;63.50;49.05;;;;;;;10.70;56.92;103058.09;5016130;28;20014;-81
2022/03/25 10:10:21;;;;;;;60.28;47.97;;;;;;;10.77;57.32;103059.50;5021876;28;20033;-82
2022/03/25 10:12:52;;;;;;;57.80;46.28;;;;;;;10.90;55.94;103066.66;5006736;28;20087;-82
2022/03/25 10:15:26;;;;;;;60.83;44.42;;;;;;;10.87;55.02;103045.16;5003638;28;20111;-86
2022/03/25 10:17:59;;;;;;;56.75;46.08;;;;;;;11.06;56.64;103061.53;5010267;28;20060;-82
2022/03/25 10:20:38;;;;;;;57.38;46.17;;;;;;;10.94;56.05;103030.97;5013550;28;20026;-85
2022/03/25 10:23:18;;;;;;;60.30;46.38;;;;;;;10.99;56.16;103007.41;4996818;28;20048;-85
2022/03/25 10:25:53;;;;;;;54.47;43.92;;;;;;;11.11;54.78;103011.97;4994305;28;20040;-85
2022/03/25 10:28:29;;;;;;;52.67;43.33;;;;;;;11.42;53.84;103063.28;5020727;28;20037;-85
2022/03/25 10:31:04;;;;;;;53.58;42.92;;;;;;;11.24;53.38;103012.22;4994763;28;20393;-85
2022/03/25 10:33:36;;;;;;;54.10;42.03;;;;;;;11.43;53.21;103034.63;5014658;28;20046;-83
2022/03/25 10:36:07;;;;;;;59.40;43.50;;;;;;;11.66;52.42;103066.41;5011964;28;20025;-85
2022/03/25 10:38:54;;;;;;;53.53;43.00;;;;;;;11.76;53.93;103061.59;4995370;28;20025;-85
2022/03/25 10:41:36;;;;;;;53.42;43.00;;;;;;;11.48;51.89;103011.03;5012292;28;20057;-84
2022/03/25 10:44:03;;;;;;;50.78;40.20;;;;;;;11.54;51.29;103000.31;4995523;28;20508;-86
2022/03/25 10:46:36;;;;;;;51.13;41.30;;;;;;;11.89;50.59;103060.09;5013293;28;20029;-85
2022/03/25 10:49:05;;;;;;;51.40;41.95;;;;;;;11.86;52.05;103031.63;5012116;28;20207;-86
2022/03/25 10:51:31;;;;;;;;;;;;;;;12.12;53.23;103054.53;4992297;28;20038;-85
2022/03/25 10:53:59;;;;;;;49.88;41.45;;;;;;;12.22;50.88;103050.53;4992164;28;19917;-84
2022/03/25 10:56:24;;;;;;;48.78;40.33;;;;;;;12.16;51.35;103014.44;4993296;28;20076;-85
2022/03/25 10:58:52;;;;;;;50.08;40.70;;;;;;;12.25;51.42;103014.84;5011756;28;20560;-85
2022/03/25 11:01:20;;;;;;;51.67;40.17;;;;;;;12.47;50.55;103028.38;4995300;28;20038;-85
2022/03/25 11:03:50;;;;;;;49.33;39.88;;;;;;;12.42;48.90;103015.63;5009040;28;20288;-85
2022/03/25 11:06:19;;;;;;;51.30;40.80;;;;;;;12.61;49.79;103022.41;5012875;28;20478;-86
2022/03/25 11:08:47;;;;;;;49.42;38.38;;;;;;;12.81;49.69;103042.16;5010957;28;20033;-82
2022/03/25 11:11:16;;;;;;;46.92;36.35;;;;;;;12.88;48.26;103043.47;5013323;28;20112;-82
2022/03/25 11:13:44;;;;;;;47.70;36.95;;;;;;;12.87;47.44;103031.38;5008195;28;20486;-82
2022/03/25 11:16:12;;;;;;;;;;;;;;;13.03;49.67;103047.84;5011969;28;20529;-82
2022/03/25 11:18:41;;;;;;;46.80;36.38;;;;;;;13.01;47.21;103040.09;4994241;28;19925;-82
2022/03/25 11:21:09;;;;;;;50.15;39.53;;;;;;;13.03;48.06;103037.41;4998323;28;20038;-82
2022/03/25 11:23:43;;;;;;;49.35;38.35;;;;;;;13.06;47.39;103037.22;5013820;28;20075;-82
2022/03/25 11:26:11;;;;;;;47.70;36.95;;;;;;;13.10;48.41;103017.06;5013573;28;20029;-82
2022/03/25 11:28:37;;;;;;;51.15;37.50;;;;;;;13.25;48.51;103024.88;4995058;28;20030;-82
2022/03/25 11:31:05;;;;;;;44.72;35.35;;;;;;;13.42;47.07;103034.31;5013524;28;20555;-82
2022/03/25 11:34:15;;;;;;;44.92;34.85;;;;;;;13.47;46.31;103026.22;5013070;28;20116;-86
2022/03/25 11:36:43;;;;;;;42.78;31.38;;;;;;;13.48;44.86;103012.28;5008720;28;20414;-84
2022/03/25 11:39:25;;;;;;;43.00;32.45;;;;;;;13.59;45.89;103025.50;5006367;28;20084;-82
2022/03/25 11:42:02;;;;;;;39.83;31.48;;;;;;;13.77;45.77;103021.81;5019459;28;20291;-82
2022/03/25 11:44:29;;;;;;;44.13;32.45;;;;;;;13.82;45.21;103022.38;5007468;28;20412;-83
2022/03/25 11:47:00;;;;;;;42.13;31.42;;;;;;;13.90;43.81;103029.72;5021093;28;20037;-82
2022/03/25 11:49:31;;;;;;;46.15;32.55;;;;;;;13.98;44.14;103013.59;4991803;28;20029;-82
2022/03/25 11:52:16;;;;;;;41.47;32.58;;;;;;;14.12;45.37;103016.22;5009024;28;20407;-83
2022/03/25 11:54:43;;;;;;;43.53;32.83;;;;;;;14.09;43.30;103013.78;5008885;28;20061;-82
2022/03/25 11:57:25;;;;;;;46.60;33.05;;;;;;;14.18;44.81;103010.59;5014270;28;20104;-83
2022/03/25 11:59:56;;;;;;;46.63;34.72;;;;;;;14.12;42.67;103011.00;5029455;28;20039;-83
2022/03/25 12:02:25;;;;;;;45.45;33.38;;;;;;;14.13;43.69;103014.44;5029198;28;20040;-83
2022/03/25 12:04:51;;;;;;;45.70;33.08;;;;;;;14.33;44.78;102996.56;5029230;28;20041;-83
2022/03/25 12:07:17;;;;;;;43.80;34.03;;;;;;;14.35;43.53;103005.16;5027860;28;20373;-82
2022/03/25 12:09:45;;;;;;;46.33;34.45;;;;;;;14.46;44.40;103006.28;5029031;28;20045;-82
2022/03/25 12:12:11;;;;;;;47.10;34.97;;;;;;;14.52;43.69;103000.69;5029345;28;20304;-82